sensor_id;sensor_type;location;lat;lon;timestamp;temperature;humidity
4655;DHT22;2340;47.814;9.798;2023-05-23T00:01:45;17.80;99.90
4655;DHT22;2340;47.814;9.798;2023-05-23T00:04:11;17.90;99.90
4655;DHT22;2340;47.814;9.798;2023-05-23T00:06:44;17.90;99.90
4655;DHT22;2340;47.814;9.798;2023-05-23T00:09:12;17.80;99.90
4655;DHT22;2340;47.814;9.798;2023-05-23T00:11:38;17.80;99.90
4655;DHT22;2340;47.814;9.798;2023-05-23T00:14:03;17.80;99.90
4655;DHT22;2340;47.814;9.798;2023-05-23T00:16:32;17.70;99.90
4655;DHT22;2340;47.814;9.798;2023-05-23T00:18:58;17.60;99.90
4655;DHT22;2340;47.814;9.798;2023-05-23T00:21:23;17.60;99.90
4655;DHT22;2340;47.814;9.798;2023-05-23T00:23:49;17.50;99.90
4655;DHT22;2340;47.814;9.798;2023-05-23T00:26:14;17.40;99.90
4655;DHT22;2340;47.814;9.798;2023-05-23T00:28:40;17.40;99.90
4655;DHT22;2340;47.814;9.798;2023-05-23T00:31:05;17.30;99.90
4655;DHT22;2340;47.814;9.798;2023-05-23T00:33:31;17.20;99.90
4655;DHT22;2340;47.814;9.798;2023-05-23T00:36:01;17.20;99.90
4655;DHT22;2340;47.814;9.798;2023-05-23T00:38:27;17.20;99.90
4655;DHT22;2340;47.814;9.798;2023-05-23T00:40:52;17.10;99.90
4655;DHT22;2340;47.814;9.798;2023-05-23T00:43:18;17.10;99.90
4655;DHT22;2340;47.814;9.798;2023-05-23T00:45:45;17.10;99.90
4655;DHT22;2340;47.814;9.798;2023-05-23T00:48:11;17.10;99.90
4655;DHT22;2340;47.814;9.798;2023-05-23T00:50:37;17.00;99.90
4655;DHT22;2340;47.814;9.798;2023-05-23T00:53:02;17.00;99.90
4655;DHT22;2340;47.814;9.798;2023-05-23T00:55:28;17.00;99.90
4655;DHT22;2340;47.814;9.798;2023-05-23T00:57:54;16.90;99.90
4655;DHT22;2340;47.814;9.798;2023-05-23T01:00:24;16.90;99.90
4655;DHT22;2340;47.814;9.798;2023-05-23T01:02:50;16.80;99.90
4655;DHT22;2340;47.814;9.798;2023-05-23T01:05:15;16.80;99.90
4655;DHT22;2340;47.814;9.798;2023-05-23T01:07:44;16.60;99.90
4655;DHT22;2340;47.814;9.798;2023-05-23T01:10:12;16.60;99.90
4655;DHT22;2340;47.814;9.798;2023-05-23T01:15:14;16.50;99.90
4655;DHT22;2340;47.814;9.798;2023-05-23T01:17:49;16.40;99.90
4655;DHT22;2340;47.814;9.798;2023-05-23T01:20:29;16.50;99.90
4655;DHT22;2340;47.814;9.798;2023-05-23T01:25:30;16.40;99.90
4655;DHT22;2340;47.814;9.798;2023-05-23T01:28:01;16.50;99.90
4655;DHT22;2340;47.814;9.798;2023-05-23T01:30:28;16.50;99.90
4655;DHT22;2340;47.814;9.798;2023-05-23T01:32:54;16.50;99.90
4655;DHT22;2340;47.814;9.798;2023-05-23T01:35:22;16.50;99.90
4655;DHT22;2340;47.814;9.798;2023-05-23T01:37:48;16.40;99.90
4655;DHT22;2340;47.814;9.798;2023-05-23T01:40:14;16.40;99.90
4655;DHT22;2340;47.814;9.798;2023-05-23T01:42:39;16.30;99.90
4655;DHT22;2340;47.814;9.798;2023-05-23T01:45:05;16.30;99.90
4655;DHT22;2340;47.814;9.798;2023-05-23T01:47:31;16.20;99.90
4655;DHT22;2340;47.814;9.798;2023-05-23T01:49:57;16.30;99.90
4655;DHT22;2340;47.814;9.798;2023-05-23T01:52:23;16.30;99.90
4655;DHT22;2340;47.814;9.798;2023-05-23T01:54:49;16.30;99.90
4655;DHT22;2340;47.814;9.798;2023-05-23T01:57:15;16.20;99.90
4655;DHT22;2340;47.814;9.798;2023-05-23T01:59:40;16.20;99.90
4655;DHT22;2340;47.814;9.798;2023-05-23T02:02:06;16.20;99.90
4655;DHT22;2340;47.814;9.798;2023-05-23T02:04:32;16.30;99.90
4655;DHT22;2340;47.814;9.798;2023-05-23T02:06:57;16.30;99.90
4655;DHT22;2340;47.814;9.798;2023-05-23T02:09:23;16.30;99.90
4655;DHT22;2340;47.814;9.798;2023-05-23T02:11:48;16.30;99.90
4655;DHT22;2340;47.814;9.798;2023-05-23T02:14:13;16.30;99.90
4655;DHT22;2340;47.814;9.798;2023-05-23T02:16:39;16.20;99.90
4655;DHT22;2340;47.814;9.798;2023-05-23T02:19:04;16.00;99.90
4655;DHT22;2340;47.814;9.798;2023-05-23T02:21:30;15.90;99.90
4655;DHT22;2340;47.814;9.798;2023-05-23T02:23:56;15.80;99.90
4655;DHT22;2340;47.814;9.798;2023-05-23T02:26:21;15.80;99.90
4655;DHT22;2340;47.814;9.798;2023-05-23T02:28:47;15.70;99.90
4655;DHT22;2340;47.814;9.798;2023-05-23T02:31:12;15.70;99.90
4655;DHT22;2340;47.814;9.798;2023-05-23T02:33:38;15.70;99.90
4655;DHT22;2340;47.814;9.798;2023-05-23T02:36:03;15.80;99.90
4655;DHT22;2340;47.814;9.798;2023-05-23T02:38:29;15.80;99.90
4655;DHT22;2340;47.814;9.798;2023-05-23T02:40:55;15.80;99.90
4655;DHT22;2340;47.814;9.798;2023-05-23T02:43:22;15.80;99.90
4655;DHT22;2340;47.814;9.798;2023-05-23T02:45:47;15.70;99.90
4655;DHT22;2340;47.814;9.798;2023-05-23T02:48:13;15.70;99.90
4655;DHT22;2340;47.814;9.798;2023-05-23T02:50:38;15.70;99.90
4655;DHT22;2340;47.814;9.798;2023-05-23T02:53:04;15.70;99.90
4655;DHT22;2340;47.814;9.798;2023-05-23T02:55:29;15.70;99.90
4655;DHT22;2340;47.814;9.798;2023-05-23T02:57:56;15.80;99.90
4655;DHT22;2340;47.814;9.798;2023-05-23T03:00:23;15.70;99.90
4655;DHT22;2340;47.814;9.798;2023-05-23T03:02:48;15.70;99.90
4655;DHT22;2340;47.814;9.798;2023-05-23T03:05:14;15.70;99.90
4655;DHT22;2340;47.814;9.798;2023-05-23T03:07:39;15.60;99.90
4655;DHT22;2340;47.814;9.798;2023-05-23T03:10:05;15.60;99.90
4655;DHT22;2340;47.814;9.798;2023-05-23T03:12:31;15.70;99.90
4655;DHT22;2340;47.814;9.798;2023-05-23T03:14:56;15.60;99.90
4655;DHT22;2340;47.814;9.798;2023-05-23T03:17:23;15.60;99.90
4655;DHT22;2340;47.814;9.798;2023-05-23T03:19:49;15.60;99.90
4655;DHT22;2340;47.814;9.798;2023-05-23T03:22:14;15.50;99.90
4655;DHT22;2340;47.814;9.798;2023-05-23T03:24:40;15.50;99.90
4655;DHT22;2340;47.814;9.798;2023-05-23T03:27:05;15.50;99.90
4655;DHT22;2340;47.814;9.798;2023-05-23T03:29:31;15.50;99.90
4655;DHT22;2340;47.814;9.798;2023-05-23T03:31:57;15.60;99.90
4655;DHT22;2340;47.814;9.798;2023-05-23T03:34:22;15.60;99.90
4655;DHT22;2340;47.814;9.798;2023-05-23T03:36:48;15.50;99.90
4655;DHT22;2340;47.814;9.798;2023-05-23T03:39:13;15.50;99.90
4655;DHT22;2340;47.814;9.798;2023-05-23T03:41:39;15.40;99.90
4655;DHT22;2340;47.814;9.798;2023-05-23T03:44:04;15.40;99.90
4655;DHT22;2340;47.814;9.798;2023-05-23T03:46:30;15.30;99.90
4655;DHT22;2340;47.814;9.798;2023-05-23T03:48:55;15.30;99.90
4655;DHT22;2340;47.814;9.798;2023-05-23T03:51:21;15.30;99.90
4655;DHT22;2340;47.814;9.798;2023-05-23T03:53:46;15.30;99.90
4655;DHT22;2340;47.814;9.798;2023-05-23T03:56:12;15.30;99.90
4655;DHT22;2340;47.814;9.798;2023-05-23T03:58:37;15.30;99.90
4655;DHT22;2340;47.814;9.798;2023-05-23T04:01:03;15.20;99.90
4655;DHT22;2340;47.814;9.798;2023-05-23T04:03:29;15.20;99.90
4655;DHT22;2340;47.814;9.798;2023-05-23T04:05:57;15.20;99.90
4655;DHT22;2340;47.814;9.798;2023-05-23T04:08:23;15.30;99.90
4655;DHT22;2340;47.814;9.798;2023-05-23T04:10:48;15.30;99.90
4655;DHT22;2340;47.814;9.798;2023-05-23T04:13:14;15.30;99.90
4655;DHT22;2340;47.814;9.798;2023-05-23T04:15:40;15.30;99.90
4655;DHT22;2340;47.814;9.798;2023-05-23T04:18:06;15.40;99.90
4655;DHT22;2340;47.814;9.798;2023-05-23T04:20:33;15.40;99.90
4655;DHT22;2340;47.814;9.798;2023-05-23T04:22:59;15.50;99.90
4655;DHT22;2340;47.814;9.798;2023-05-23T04:25:24;15.60;99.90
4655;DHT22;2340;47.814;9.798;2023-05-23T04:27:50;15.60;99.90
4655;DHT22;2340;47.814;9.798;2023-05-23T04:30:16;15.70;99.90
4655;DHT22;2340;47.814;9.798;2023-05-23T04:32:42;15.80;99.90
4655;DHT22;2340;47.814;9.798;2023-05-23T04:35:08;15.80;99.90
4655;DHT22;2340;47.814;9.798;2023-05-23T04:37:34;15.90;99.90
4655;DHT22;2340;47.814;9.798;2023-05-23T04:40:02;15.90;99.90
4655;DHT22;2340;47.814;9.798;2023-05-23T04:42:28;16.00;99.90
4655;DHT22;2340;47.814;9.798;2023-05-23T04:44:53;16.00;99.90
4655;DHT22;2340;47.814;9.798;2023-05-23T04:47:21;16.00;99.90
4655;DHT22;2340;47.814;9.798;2023-05-23T04:49:49;16.00;99.90
4655;DHT22;2340;47.814;9.798;2023-05-23T04:52:15;16.00;99.90
4655;DHT22;2340;47.814;9.798;2023-05-23T04:54:43;16.00;99.90
4655;DHT22;2340;47.814;9.798;2023-05-23T04:57:11;16.00;99.90
4655;DHT22;2340;47.814;9.798;2023-05-23T04:59:36;16.10;99.90
4655;DHT22;2340;47.814;9.798;2023-05-23T05:02:02;16.10;99.90
4655;DHT22;2340;47.814;9.798;2023-05-23T05:04:27;16.30;99.90
4655;DHT22;2340;47.814;9.798;2023-05-23T05:06:53;16.20;99.90
4655;DHT22;2340;47.814;9.798;2023-05-23T05:09:18;16.20;99.90
4655;DHT22;2340;47.814;9.798;2023-05-23T05:11:46;16.20;99.90
4655;DHT22;2340;47.814;9.798;2023-05-23T05:14:11;16.30;99.90
4655;DHT22;2340;47.814;9.798;2023-05-23T05:16:37;16.30;99.90
4655;DHT22;2340;47.814;9.798;2023-05-23T05:19:02;16.40;99.90
4655;DHT22;2340;47.814;9.798;2023-05-23T05:21:28;16.40;99.90
4655;DHT22;2340;47.814;9.798;2023-05-23T05:23:53;16.40;99.90
4655;DHT22;2340;47.814;9.798;2023-05-23T05:26:19;16.50;99.90
4655;DHT22;2340;47.814;9.798;2023-05-23T05:28:44;16.50;99.90
4655;DHT22;2340;47.814;9.798;2023-05-23T05:31:10;16.50;99.90
4655;DHT22;2340;47.814;9.798;2023-05-23T05:33:39;16.50;99.90
4655;DHT22;2340;47.814;9.798;2023-05-23T05:36:06;16.50;99.90
4655;DHT22;2340;47.814;9.798;2023-05-23T05:38:31;16.50;99.90
4655;DHT22;2340;47.814;9.798;2023-05-23T05:40:57;16.50;99.90
4655;DHT22;2340;47.814;9.798;2023-05-23T05:43:22;16.50;99.90
4655;DHT22;2340;47.814;9.798;2023-05-23T05:45:48;16.50;99.90
4655;DHT22;2340;47.814;9.798;2023-05-23T05:48:13;16.50;99.90
4655;DHT22;2340;47.814;9.798;2023-05-23T05:50:39;16.50;99.90
4655;DHT22;2340;47.814;9.798;2023-05-23T05:53:04;16.50;99.90
4655;DHT22;2340;47.814;9.798;2023-05-23T05:55:32;16.50;99.90
4655;DHT22;2340;47.814;9.798;2023-05-23T05:57:58;16.50;99.90
4655;DHT22;2340;47.814;9.798;2023-05-23T06:00:24;16.50;99.90
4655;DHT22;2340;47.814;9.798;2023-05-23T06:02:49;16.60;99.90
4655;DHT22;2340;47.814;9.798;2023-05-23T06:05:15;16.50;99.90
4655;DHT22;2340;47.814;9.798;2023-05-23T06:07:46;16.60;99.90
4655;DHT22;2340;47.814;9.798;2023-05-23T06:10:12;16.50;99.90
4655;DHT22;2340;47.814;9.798;2023-05-23T06:12:38;16.60;99.90
4655;DHT22;2340;47.814;9.798;2023-05-23T06:15:04;16.70;99.90
4655;DHT22;2340;47.814;9.798;2023-05-23T06:17:30;16.70;99.90
4655;DHT22;2340;47.814;9.798;2023-05-23T06:19:55;16.80;99.90
4655;DHT22;2340;47.814;9.798;2023-05-23T06:22:21;16.80;99.90
4655;DHT22;2340;47.814;9.798;2023-05-23T06:24:46;16.90;99.90
4655;DHT22;2340;47.814;9.798;2023-05-23T06:27:12;16.90;99.90
4655;DHT22;2340;47.814;9.798;2023-05-23T06:29:37;17.00;99.90
4655;DHT22;2340;47.814;9.798;2023-05-23T06:32:03;17.10;99.90
4655;DHT22;2340;47.814;9.798;2023-05-23T06:34:28;17.20;99.90
4655;DHT22;2340;47.814;9.798;2023-05-23T06:36:54;17.30;99.90
4655;DHT22;2340;47.814;9.798;2023-05-23T06:39:20;17.30;99.90
4655;DHT22;2340;47.814;9.798;2023-05-23T06:41:46;17.40;99.90
4655;DHT22;2340;47.814;9.798;2023-05-23T06:44:11;17.50;99.90
4655;DHT22;2340;47.814;9.798;2023-05-23T06:46:37;17.50;99.90
4655;DHT22;2340;47.814;9.798;2023-05-23T06:49:02;17.60;99.90
4655;DHT22;2340;47.814;9.798;2023-05-23T06:51:28;17.60;99.90
4655;DHT22;2340;47.814;9.798;2023-05-23T06:53:53;17.60;99.90
4655;DHT22;2340;47.814;9.798;2023-05-23T06:56:21;17.70;99.90
4655;DHT22;2340;47.814;9.798;2023-05-23T06:58:47;17.70;99.90
4655;DHT22;2340;47.814;9.798;2023-05-23T07:01:12;17.70;99.90
4655;DHT22;2340;47.814;9.798;2023-05-23T07:03:38;17.80;99.90
4655;DHT22;2340;47.814;9.798;2023-05-23T07:06:06;17.90;99.90
4655;DHT22;2340;47.814;9.798;2023-05-23T07:08:31;17.80;99.90
4655;DHT22;2340;47.814;9.798;2023-05-23T07:10:57;17.80;99.90
4655;DHT22;2340;47.814;9.798;2023-05-23T07:13:22;17.70;99.90
4655;DHT22;2340;47.814;9.798;2023-05-23T07:15:48;17.70;99.90
4655;DHT22;2340;47.814;9.798;2023-05-23T07:18:13;17.70;99.90
4655;DHT22;2340;47.814;9.798;2023-05-23T07:20:39;17.70;99.90
4655;DHT22;2340;47.814;9.798;2023-05-23T07:23:05;17.70;99.90
4655;DHT22;2340;47.814;9.798;2023-05-23T07:25:30;17.80;99.90
4655;DHT22;2340;47.814;9.798;2023-05-23T07:27:56;17.80;99.90
4655;DHT22;2340;47.814;9.798;2023-05-23T07:30:21;17.90;99.90
4655;DHT22;2340;47.814;9.798;2023-05-23T07:32:47;17.90;99.90
4655;DHT22;2340;47.814;9.798;2023-05-23T07:35:13;18.10;99.90
4655;DHT22;2340;47.814;9.798;2023-05-23T07:37:39;18.10;99.90
4655;DHT22;2340;47.814;9.798;2023-05-23T07:40:04;18.10;99.90
4655;DHT22;2340;47.814;9.798;2023-05-23T07:42:30;18.10;99.90
4655;DHT22;2340;47.814;9.798;2023-05-23T07:44:55;18.20;99.90
4655;DHT22;2340;47.814;9.798;2023-05-23T07:47:21;18.30;99.90
4655;DHT22;2340;47.814;9.798;2023-05-23T07:49:48;18.40;99.90
4655;DHT22;2340;47.814;9.798;2023-05-23T07:52:16;18.50;99.90
4655;DHT22;2340;47.814;9.798;2023-05-23T07:54:41;18.60;99.90
4655;DHT22;2340;47.814;9.798;2023-05-23T07:57:08;18.60;99.90
4655;DHT22;2340;47.814;9.798;2023-05-23T07:59:33;18.70;99.90
4655;DHT22;2340;47.814;9.798;2023-05-23T08:01:59;18.90;99.90
4655;DHT22;2340;47.814;9.798;2023-05-23T08:04:24;19.00;99.90
4655;DHT22;2340;47.814;9.798;2023-05-23T08:06:50;19.00;99.90
4655;DHT22;2340;47.814;9.798;2023-05-23T08:09:17;19.10;99.90
4655;DHT22;2340;47.814;9.798;2023-05-23T08:11:43;19.20;99.90
4655;DHT22;2340;47.814;9.798;2023-05-23T08:14:08;19.30;99.90
4655;DHT22;2340;47.814;9.798;2023-05-23T08:16:34;19.30;99.90
4655;DHT22;2340;47.814;9.798;2023-05-23T08:19:00;19.30;99.90
4655;DHT22;2340;47.814;9.798;2023-05-23T08:21:26;19.40;99.90
4655;DHT22;2340;47.814;9.798;2023-05-23T08:23:51;19.40;99.90
4655;DHT22;2340;47.814;9.798;2023-05-23T08:26:17;19.40;99.90
4655;DHT22;2340;47.814;9.798;2023-05-23T08:28:42;19.60;99.90
4655;DHT22;2340;47.814;9.798;2023-05-23T08:31:08;19.80;99.90
4655;DHT22;2340;47.814;9.798;2023-05-23T08:33:33;19.80;99.90
4655;DHT22;2340;47.814;9.798;2023-05-23T08:35:59;19.90;99.90
4655;DHT22;2340;47.814;9.798;2023-05-23T08:38:25;19.90;99.90
4655;DHT22;2340;47.814;9.798;2023-05-23T08:40:51;19.90;99.90
4655;DHT22;2340;47.814;9.798;2023-05-23T08:43:17;19.80;99.90
4655;DHT22;2340;47.814;9.798;2023-05-23T08:45:43;19.70;99.90
4655;DHT22;2340;47.814;9.798;2023-05-23T08:48:09;19.70;99.90
4655;DHT22;2340;47.814;9.798;2023-05-23T08:50:38;19.50;99.90
4655;DHT22;2340;47.814;9.798;2023-05-23T08:53:04;19.50;99.90
4655;DHT22;2340;47.814;9.798;2023-05-23T08:55:32;19.30;99.90
4655;DHT22;2340;47.814;9.798;2023-05-23T08:57:58;19.20;99.90
4655;DHT22;2340;47.814;9.798;2023-05-23T09:00:25;19.20;99.90
4655;DHT22;2340;47.814;9.798;2023-05-23T09:02:50;19.10;99.90
4655;DHT22;2340;47.814;9.798;2023-05-23T09:05:16;19.10;99.90
4655;DHT22;2340;47.814;9.798;2023-05-23T09:07:43;19.00;99.90
4655;DHT22;2340;47.814;9.798;2023-05-23T09:10:11;19.00;99.90
4655;DHT22;2340;47.814;9.798;2023-05-23T09:12:37;19.00;99.90
4655;DHT22;2340;47.814;9.798;2023-05-23T09:15:05;19.10;99.90
4655;DHT22;2340;47.814;9.798;2023-05-23T09:17:32;19.30;99.90
4655;DHT22;2340;47.814;9.798;2023-05-23T09:20:01;19.50;99.90
4655;DHT22;2340;47.814;9.798;2023-05-23T09:22:27;19.70;99.90
4655;DHT22;2340;47.814;9.798;2023-05-23T09:24:53;19.70;99.90
4655;DHT22;2340;47.814;9.798;2023-05-23T09:27:19;19.80;99.90
4655;DHT22;2340;47.814;9.798;2023-05-23T09:29:45;19.80;99.90
4655;DHT22;2340;47.814;9.798;2023-05-23T09:34:41;19.80;99.90
4655;DHT22;2340;47.814;9.798;2023-05-23T09:37:06;19.70;99.90
4655;DHT22;2340;47.814;9.798;2023-05-23T09:39:35;19.60;99.90
4655;DHT22;2340;47.814;9.798;2023-05-23T09:42:01;19.50;99.90
4655;DHT22;2340;47.814;9.798;2023-05-23T09:44:27;19.50;99.90
4655;DHT22;2340;47.814;9.798;2023-05-23T09:46:52;19.40;99.90
4655;DHT22;2340;47.814;9.798;2023-05-23T09:49:18;19.40;99.90
4655;DHT22;2340;47.814;9.798;2023-05-23T09:51:47;19.30;99.90
4655;DHT22;2340;47.814;9.798;2023-05-23T09:54:20;19.30;99.90
4655;DHT22;2340;47.814;9.798;2023-05-23T09:56:46;19.40;99.90
4655;DHT22;2340;47.814;9.798;2023-05-23T09:59:13;19.50;99.90
4655;DHT22;2340;47.814;9.798;2023-05-23T10:01:41;19.60;99.90
4655;DHT22;2340;47.814;9.798;2023-05-23T10:04:07;19.80;99.90
4655;DHT22;2340;47.814;9.798;2023-05-23T10:06:38;20.00;99.90
4655;DHT22;2340;47.814;9.798;2023-05-23T10:09:06;20.40;99.90
4655;DHT22;2340;47.814;9.798;2023-05-23T10:14:04;21.00;99.90
4655;DHT22;2340;47.814;9.798;2023-05-23T10:16:45;21.10;99.90
4655;DHT22;2340;47.814;9.798;2023-05-23T10:19:16;21.20;99.90
4655;DHT22;2340;47.814;9.798;2023-05-23T10:21:48;21.20;99.90
4655;DHT22;2340;47.814;9.798;2023-05-23T10:24:14;21.10;99.90
4655;DHT22;2340;47.814;9.798;2023-05-23T10:26:41;21.10;99.90
4655;DHT22;2340;47.814;9.798;2023-05-23T10:29:07;20.90;99.90
4655;DHT22;2340;47.814;9.798;2023-05-23T10:31:33;20.90;99.90
4655;DHT22;2340;47.814;9.798;2023-05-23T10:34:03;20.80;99.90
4655;DHT22;2340;47.814;9.798;2023-05-23T10:36:34;20.80;99.90
4655;DHT22;2340;47.814;9.798;2023-05-23T10:39:15;20.60;99.90
4655;DHT22;2340;47.814;9.798;2023-05-23T10:41:50;20.50;99.90
4655;DHT22;2340;47.814;9.798;2023-05-23T10:44:19;20.60;99.90
4655;DHT22;2340;47.814;9.798;2023-05-23T10:46:54;20.80;99.90
4655;DHT22;2340;47.814;9.798;2023-05-23T10:49:22;21.00;99.90
4655;DHT22;2340;47.814;9.798;2023-05-23T10:52:01;21.30;99.90
4655;DHT22;2340;47.814;9.798;2023-05-23T10:54:26;21.70;99.90
4655;DHT22;2340;47.814;9.798;2023-05-23T10:57:02;21.90;99.90
4655;DHT22;2340;47.814;9.798;2023-05-23T10:59:28;21.80;99.90
4655;DHT22;2340;47.814;9.798;2023-05-23T11:01:54;21.60;99.90
4655;DHT22;2340;47.814;9.798;2023-05-23T11:04:26;21.20;99.90
4655;DHT22;2340;47.814;9.798;2023-05-23T11:06:53;20.80;99.90
4655;DHT22;2340;47.814;9.798;2023-05-23T11:09:19;20.50;99.90
4655;DHT22;2340;47.814;9.798;2023-05-23T11:16:56;19.90;99.90
4655;DHT22;2340;47.814;9.798;2023-05-23T11:19:22;19.80;99.90
4655;DHT22;2340;47.814;9.798;2023-05-23T11:21:57;19.80;99.90
4655;DHT22;2340;47.814;9.798;2023-05-23T11:24:23;19.80;99.90
4655;DHT22;2340;47.814;9.798;2023-05-23T11:27:10;19.80;99.90
4655;DHT22;2340;47.814;9.798;2023-05-23T11:29:36;19.90;99.90
4655;DHT22;2340;47.814;9.798;2023-05-23T11:32:07;20.10;99.90
4655;DHT22;2340;47.814;9.798;2023-05-23T11:34:34;20.20;99.90
4655;DHT22;2340;47.814;9.798;2023-05-23T11:36:59;20.20;99.90
4655;DHT22;2340;47.814;9.798;2023-05-23T11:39:25;20.20;99.90
4655;DHT22;2340;47.814;9.798;2023-05-23T11:42:00;20.30;99.90
4655;DHT22;2340;47.814;9.798;2023-05-23T11:44:26;20.20;99.90
4655;DHT22;2340;47.814;9.798;2023-05-23T11:46:57;20.20;99.90
4655;DHT22;2340;47.814;9.798;2023-05-23T11:49:23;20.30;99.90
4655;DHT22;2340;47.814;9.798;2023-05-23T11:51:48;20.40;99.90
4655;DHT22;2340;47.814;9.798;2023-05-23T11:54:14;20.40;99.90
4655;DHT22;2340;47.814;9.798;2023-05-23T11:56:39;20.50;99.90
4655;DHT22;2340;47.814;9.798;2023-05-23T11:59:05;20.50;99.90
4655;DHT22;2340;47.814;9.798;2023-05-23T12:01:30;20.80;99.90
4655;DHT22;2340;47.814;9.798;2023-05-23T12:03:57;21.00;99.90
4655;DHT22;2340;47.814;9.798;2023-05-23T12:06:23;21.40;99.90
4655;DHT22;2340;47.814;9.798;2023-05-23T12:08:50;22.10;99.90
4655;DHT22;2340;47.814;9.798;2023-05-23T12:11:15;23.00;99.90
4655;DHT22;2340;47.814;9.798;2023-05-23T12:13:41;23.10;99.90
4655;DHT22;2340;47.814;9.798;2023-05-23T12:16:07;22.70;99.90
4655;DHT22;2340;47.814;9.798;2023-05-23T12:18:32;22.30;99.90
4655;DHT22;2340;47.814;9.798;2023-05-23T12:20:58;22.00;99.90
4655;DHT22;2340;47.814;9.798;2023-05-23T12:23:25;21.70;99.90
4655;DHT22;2340;47.814;9.798;2023-05-23T12:25:51;21.70;99.90
4655;DHT22;2340;47.814;9.798;2023-05-23T12:28:17;22.00;99.90
4655;DHT22;2340;47.814;9.798;2023-05-23T12:30:42;22.20;99.90
4655;DHT22;2340;47.814;9.798;2023-05-23T12:33:08;22.20;99.90
4655;DHT22;2340;47.814;9.798;2023-05-23T12:35:34;22.00;99.90
4655;DHT22;2340;47.814;9.798;2023-05-23T12:37:59;21.80;99.90
4655;DHT22;2340;47.814;9.798;2023-05-23T12:40:25;21.70;99.90
4655;DHT22;2340;47.814;9.798;2023-05-23T12:42:54;21.50;99.90
4655;DHT22;2340;47.814;9.798;2023-05-23T12:45:21;21.30;99.90
4655;DHT22;2340;47.814;9.798;2023-05-23T12:47:47;21.10;99.90
4655;DHT22;2340;47.814;9.798;2023-05-23T12:50:12;21.10;99.90
4655;DHT22;2340;47.814;9.798;2023-05-23T12:52:38;21.20;99.90
4655;DHT22;2340;47.814;9.798;2023-05-23T12:55:05;21.30;99.90
4655;DHT22;2340;47.814;9.798;2023-05-23T12:57:31;21.50;99.90
4655;DHT22;2340;47.814;9.798;2023-05-23T12:59:57;21.50;99.90
4655;DHT22;2340;47.814;9.798;2023-05-23T13:02:23;21.50;99.90
4655;DHT22;2340;47.814;9.798;2023-05-23T13:04:48;21.90;99.90
4655;DHT22;2340;47.814;9.798;2023-05-23T13:07:14;22.30;99.90
4655;DHT22;2340;47.814;9.798;2023-05-23T13:09:40;22.60;99.90
4655;DHT22;2340;47.814;9.798;2023-05-23T13:12:05;23.10;99.90
4655;DHT22;2340;47.814;9.798;2023-05-23T13:14:31;23.80;99.90
4655;DHT22;2340;47.814;9.798;2023-05-23T13:16:56;24.40;99.90
4655;DHT22;2340;47.814;9.798;2023-05-23T13:19:22;24.80;99.90
4655;DHT22;2340;47.814;9.798;2023-05-23T13:21:47;25.50;99.90
4655;DHT22;2340;47.814;9.798;2023-05-23T13:24:13;26.20;99.90
4655;DHT22;2340;47.814;9.798;2023-05-23T13:26:38;26.60;99.90
4655;DHT22;2340;47.814;9.798;2023-05-23T13:29:04;26.90;99.90
4655;DHT22;2340;47.814;9.798;2023-05-23T13:31:29;27.30;99.90
4655;DHT22;2340;47.814;9.798;2023-05-23T13:33:55;27.40;99.90
4655;DHT22;2340;47.814;9.798;2023-05-23T13:36:20;27.70;99.90
4655;DHT22;2340;47.814;9.798;2023-05-23T13:38:46;28.00;99.90
4655;DHT22;2340;47.814;9.798;2023-05-23T13:41:11;28.10;99.90
4655;DHT22;2340;47.814;9.798;2023-05-23T13:43:37;28.20;99.90
4655;DHT22;2340;47.814;9.798;2023-05-23T13:46:02;27.80;99.90
4655;DHT22;2340;47.814;9.798;2023-05-23T13:48:28;27.00;99.90
4655;DHT22;2340;47.814;9.798;2023-05-23T13:50:54;26.30;99.90
4655;DHT22;2340;47.814;9.798;2023-05-23T13:53:20;25.70;99.90
4655;DHT22;2340;47.814;9.798;2023-05-23T13:55:46;25.20;99.90
4655;DHT22;2340;47.814;9.798;2023-05-23T13:58:11;25.00;99.90
4655;DHT22;2340;47.814;9.798;2023-05-23T14:00:37;24.90;99.90
4655;DHT22;2340;47.814;9.798;2023-05-23T14:03:03;24.70;99.90
4655;DHT22;2340;47.814;9.798;2023-05-23T14:05:28;24.50;99.90
4655;DHT22;2340;47.814;9.798;2023-05-23T14:07:54;24.30;99.90
4655;DHT22;2340;47.814;9.798;2023-05-23T14:10:19;24.40;99.90
4655;DHT22;2340;47.814;9.798;2023-05-23T14:12:46;24.30;99.90
4655;DHT22;2340;47.814;9.798;2023-05-23T14:15:12;24.20;99.90
4655;DHT22;2340;47.814;9.798;2023-05-23T14:17:37;24.00;99.90
4655;DHT22;2340;47.814;9.798;2023-05-23T14:20:03;23.80;99.90
4655;DHT22;2340;47.814;9.798;2023-05-23T14:22:29;23.70;99.90
4655;DHT22;2340;47.814;9.798;2023-05-23T14:24:56;23.70;99.90
4655;DHT22;2340;47.814;9.798;2023-05-23T14:27:21;23.60;99.90
4655;DHT22;2340;47.814;9.798;2023-05-23T14:29:47;23.60;99.90
4655;DHT22;2340;47.814;9.798;2023-05-23T14:32:13;23.40;99.90
4655;DHT22;2340;47.814;9.798;2023-05-23T14:34:39;23.10;99.90
4655;DHT22;2340;47.814;9.798;2023-05-23T14:37:05;22.80;99.90
4655;DHT22;2340;47.814;9.798;2023-05-23T14:39:30;22.70;99.90
4655;DHT22;2340;47.814;9.798;2023-05-23T14:41:56;22.70;99.90
4655;DHT22;2340;47.814;9.798;2023-05-23T14:44:21;22.60;99.90
4655;DHT22;2340;47.814;9.798;2023-05-23T14:46:47;22.40;99.90
4655;DHT22;2340;47.814;9.798;2023-05-23T14:49:17;22.20;99.90
4655;DHT22;2340;47.814;9.798;2023-05-23T14:51:43;22.30;99.90
4655;DHT22;2340;47.814;9.798;2023-05-23T14:54:08;22.60;99.90
4655;DHT22;2340;47.814;9.798;2023-05-23T14:56:34;22.60;99.90
4655;DHT22;2340;47.814;9.798;2023-05-23T14:59:00;22.60;99.90
4655;DHT22;2340;47.814;9.798;2023-05-23T15:01:26;22.50;99.90
4655;DHT22;2340;47.814;9.798;2023-05-23T15:03:52;22.40;99.90
4655;DHT22;2340;47.814;9.798;2023-05-23T15:06:17;22.30;99.90
4655;DHT22;2340;47.814;9.798;2023-05-23T15:08:43;22.40;99.90
4655;DHT22;2340;47.814;9.798;2023-05-23T15:11:08;22.40;99.90
4655;DHT22;2340;47.814;9.798;2023-05-23T15:13:34;22.60;99.90
4655;DHT22;2340;47.814;9.798;2023-05-23T15:16:00;22.80;99.90
4655;DHT22;2340;47.814;9.798;2023-05-23T15:18:25;23.10;99.90
4655;DHT22;2340;47.814;9.798;2023-05-23T15:20:52;23.30;99.90
4655;DHT22;2340;47.814;9.798;2023-05-23T15:23:17;23.30;99.90
4655;DHT22;2340;47.814;9.798;2023-05-23T15:25:43;23.30;99.90
4655;DHT22;2340;47.814;9.798;2023-05-23T15:28:08;23.20;99.90
4655;DHT22;2340;47.814;9.798;2023-05-23T15:30:34;22.90;99.90
4655;DHT22;2340;47.814;9.798;2023-05-23T15:33:02;22.80;99.90
4655;DHT22;2340;47.814;9.798;2023-05-23T15:35:27;22.70;99.90
4655;DHT22;2340;47.814;9.798;2023-05-23T15:37:53;22.60;99.90
4655;DHT22;2340;47.814;9.798;2023-05-23T15:40:18;22.60;99.90
4655;DHT22;2340;47.814;9.798;2023-05-23T15:42:46;22.50;99.90
4655;DHT22;2340;47.814;9.798;2023-05-23T15:45:11;22.50;99.90
4655;DHT22;2340;47.814;9.798;2023-05-23T15:47:37;22.50;99.90
4655;DHT22;2340;47.814;9.798;2023-05-23T15:50:02;22.30;99.90
4655;DHT22;2340;47.814;9.798;2023-05-23T15:52:28;22.40;99.90
4655;DHT22;2340;47.814;9.798;2023-05-23T15:54:53;22.40;99.90
4655;DHT22;2340;47.814;9.798;2023-05-23T15:57:19;22.50;99.90
4655;DHT22;2340;47.814;9.798;2023-05-23T15:59:45;22.50;99.90
4655;DHT22;2340;47.814;9.798;2023-05-23T16:02:10;22.60;99.90
4655;DHT22;2340;47.814;9.798;2023-05-23T16:04:36;22.50;99.90
4655;DHT22;2340;47.814;9.798;2023-05-23T16:07:03;22.50;99.90
4655;DHT22;2340;47.814;9.798;2023-05-23T16:09:28;22.50;99.90
4655;DHT22;2340;47.814;9.798;2023-05-23T16:11:55;22.50;99.90